Time;durP1;ratioP1;P1;durP2;ratioP2;P2;SDS_P1;SDS_P2;PMS_P1;PMS_P2;Temp;Humidity;BMP_temperature;BMP_pressure;BME280_temperature;BME280_humidity;BME280_pressure;Samples;Min_cycle;Max_cycle;Signal;HPM_P1;HPM_P2
2023/09/01 00:02:09;;;;;;;936.90;410.17;;;11.50;99.90;;;;;;4903014;29;20044;-86
2023/09/01 00:04:35;;;;;;;969.00;403.97;;;11.50;99.90;;;;;;4917389;29;20488;-85
2023/09/01 00:07:01;;;;;;;1138.10;406.97;;;11.50;99.90;;;;;;4916079;29;20044;-86
2023/09/01 00:09:27;;;;;;;1068.93;407.80;;;11.50;99.90;;;;;;4928139;29;20075;-88
2023/09/01 00:11:53;;;;;;;1149.47;408.43;;;11.50;99.90;;;;;;4903019;29;20079;-86
2023/09/01 00:14:19;;;;;;;1085.40;521.83;;;11.60;99.90;;;;;;4887390;29;20335;-88
2023/09/01 00:16:44;;;;;;;977.60;414.23;;;11.40;99.90;;;;;;4894791;29;20048;-86
2023/09/01 00:19:10;;;;;;;971.33;416.33;;;11.50;99.90;;;;;;4910480;29;20515;-87
2023/09/01 00:21:36;;;;;;;971.00;510.70;;;11.50;99.90;;;;;;4919308;29;20126;-85
2023/09/01 00:24:03;;;;;;;949.33;504.83;;;11.50;99.90;;;;;;4936296;29;20123;-86
2023/09/01 00:26:29;;;;;;;916.13;406.17;;;11.40;99.90;;;;;;4916372;29;20051;-86
2023/09/01 00:28:56;;;;;;;919.63;503.67;;;11.40;99.90;;;;;;4936198;29;20299;-87
2023/09/01 00:31:22;;;;;;;881.90;402.43;;;11.40;99.90;;;;;;4936409;29;20047;-87
2023/09/01 00:33:47;;;;;;;849.73;494.10;;;11.40;99.90;;;;;;4935450;29;20303;-86
2023/09/01 00:36:13;;;;;;;897.17;501.80;;;11.40;99.90;;;;;;4911029;29;20048;-87
2023/09/01 00:38:39;;;;;;;908.10;553.10;;;11.40;99.90;;;;;;4923256;29;20075;-87
2023/09/01 00:41:05;;;;;;;885.30;415.77;;;11.40;99.90;;;;;;4930440;29;20051;-87
2023/09/01 00:43:31;;;;;;;838.57;389.10;;;11.30;99.90;;;;;;4934125;29;20296;-86
2023/09/01 00:45:59;;;;;;;831.87;372.00;;;11.30;99.90;;;;;;4934689;29;20048;-87
2023/09/01 00:48:25;;;;;;;867.57;491.87;;;11.30;99.90;;;;;;4922760;29;20039;-87
2023/09/01 00:50:51;;;;;;;883.10;497.67;;;11.30;99.90;;;;;;4923636;29;20370;-87
2023/09/01 00:53:21;;;;;;;886.67;394.50;;;11.30;99.90;;;;;;4922887;29;20347;-87
2023/09/01 00:55:49;;;;;;;882.23;496.70;;;11.30;99.90;;;;;;4938795;29;20832;-87
2023/09/01 00:58:15;;;;;;;886.47;396.07;;;11.20;99.90;;;;;;4922424;29;20745;-87
2023/09/01 01:00:41;;;;;;;880.10;495.40;;;11.20;99.90;;;;;;4921565;29;20303;-88
2023/09/01 01:03:10;;;;;;;880.03;497.77;;;11.20;99.90;;;;;;4935936;29;20040;-86
2023/09/01 01:06:09;;;;;;;873.27;495.13;;;11.20;99.90;;;;;;4935405;29;20315;-86
2023/09/01 01:09:17;;;;;;;884.40;395.90;;;11.10;99.90;;;;;;4936052;29;20311;-85
2023/09/01 01:11:56;;;;;;;881.73;399.67;;;11.10;99.90;;;;;;4893754;29;20711;-85
2023/09/01 01:14:26;;;;;;;822.67;371.30;;;11.00;99.90;;;;;;4880564;29;20305;-85
2023/09/01 01:16:52;;;;;;;874.13;394.50;;;11.00;99.90;;;;;;4877045;29;20312;-86
2023/09/01 01:19:45;;;;;;;864.13;393.10;;;11.00;99.90;;;;;;4867585;29;20289;-86
2023/09/01 01:22:12;;;;;;;836.20;486.17;;;11.00;99.90;;;;;;4866664;29;20478;-86
2023/09/01 01:24:38;;;;;;;854.67;390.87;;;10.90;99.90;;;;;;4869713;29;20405;-86
2023/09/01 01:27:03;;;;;;;845.50;386.90;;;10.90;99.90;;;;;;4866209;29;20328;-86
2023/09/01 01:29:29;;;;;;;1192.80;451.70;;;10.90;99.90;;;;;;4881681;29;20056;-84
2023/09/01 01:31:57;;;;;;;1226.03;516.37;;;10.90;99.90;;;;;;4879759;29;20053;-86
2023/09/01 01:34:37;;;;;;;1060.30;512.23;;;10.90;99.90;;;;;;4880777;29;20056;-86
2023/09/01 01:37:03;;;;;;;968.40;404.67;;;10.80;99.90;;;;;;4896925;29;20722;-86
2023/09/01 01:39:33;;;;;;;966.27;509.60;;;10.90;99.90;;;;;;4882415;29;20360;-87
2023/09/01 01:42:05;;;;;;;931.00;403.40;;;11.00;99.90;;;;;;4877860;29;20061;-86
2023/09/01 01:44:34;;;;;;;941.17;405.73;;;10.80;99.90;;;;;;4870942;29;20828;-86
2023/09/01 01:47:00;;;;;;;956.77;507.93;;;10.90;99.90;;;;;;4892763;29;20310;-86
2023/09/01 01:49:30;;;;;;;965.57;507.87;;;10.90;99.90;;;;;;4920314;29;20307;-86
2023/09/01 01:51:57;;;;;;;973.60;507.40;;;10.90;99.90;;;;;;4921544;29;20307;-86
2023/09/01 01:54:23;;;;;;;970.13;408.50;;;10.80;99.90;;;;;;4922600;29;20335;-87
2023/09/01 01:56:49;;;;;;;991.27;510.13;;;10.80;99.90;;;;;;4924698;29;20311;-86
2023/09/01 01:59:16;;;;;;;971.03;405.77;;;10.90;99.90;;;;;;4921792;29;20051;-86
2023/09/01 02:01:42;;;;;;;1014.80;511.87;;;10.90;99.90;;;;;;4921974;29;20863;-86
2023/09/01 02:04:08;;;;;;;968.43;402.30;;;10.80;99.90;;;;;;4921233;29;20378;-85
2023/09/01 02:06:33;;;;;;;969.53;409.10;;;10.70;99.90;;;;;;4936064;29;20064;-86
2023/09/01 02:08:59;;;;;;;978.10;406.90;;;10.70;99.90;;;;;;4928988;29;20044;-86
2023/09/01 02:11:25;;;;;;;1027.30;509.77;;;10.60;99.90;;;;;;4928775;29;20051;-87
2023/09/01 02:13:51;;;;;;;1010.03;406.80;;;10.60;99.90;;;;;;4933536;29;20074;-87
2023/09/01 02:16:17;;;;;;;1057.47;513.17;;;10.70;99.90;;;;;;4899397;29;20055;-85
2023/09/01 02:18:43;;;;;;;1048.60;512.27;;;10.60;99.90;;;;;;4937969;29;20051;-86
2023/09/01 02:21:08;;;;;;;1054.37;515.43;;;10.50;99.90;;;;;;4932947;29;20358;-86
2023/09/01 02:23:34;;;;;;;991.37;506.57;;;10.80;99.90;;;;;;4897407;29;20130;-85
2023/09/01 02:26:00;;;;;;;972.87;508.93;;;10.40;99.90;;;;;;4917821;29;20055;-85
2023/09/01 02:28:26;;;;;;;947.40;404.50;;;10.40;99.90;;;;;;4920524;29;20090;-85
2023/09/01 02:30:51;;;;;;;945.93;502.50;;;10.30;99.90;;;;;;4919060;29;20052;-85
2023/09/01 02:33:18;;;;;;;931.60;395.63;;;10.30;99.90;;;;;;4925382;29;20043;-86
2023/09/01 02:35:44;;;;;;;913.97;490.70;;;10.30;99.90;;;;;;4917385;29;20052;-86
2023/09/01 02:38:14;;;;;;;929.37;497.63;;;10.10;99.90;;;;;;4936760;29;20306;-86
2023/09/01 02:40:40;;;;;;;913.33;391.27;;;10.10;99.90;;;;;;4919158;29;20804;-86
2023/09/01 02:43:06;;;;;;;919.77;497.07;;;10.10;99.90;;;;;;4919688;29;20314;-85
2023/09/01 02:45:31;;;;;;;918.73;396.27;;;10.20;99.90;;;;;;4906109;29;20300;-85
2023/09/01 02:47:57;;;;;;;908.57;491.63;;;10.10;99.90;;;;;;4932229;29;20380;-87
2023/09/01 02:50:23;;;;;;;896.30;488.03;;;9.80;99.90;;;;;;4930597;29;20107;-86
2023/09/01 02:52:49;;;;;;;902.70;486.57;;;9.90;99.90;;;;;;4914240;29;20046;-85
2023/09/01 02:55:17;;;;;;;894.20;387.67;;;10.00;99.90;;;;;;4886805;29;20450;-86
2023/09/01 02:57:44;;;;;;;888.37;481.03;;;9.90;99.90;;;;;;4907123;29;20086;-85
2023/09/01 03:00:21;;;;;;;911.03;389.60;;;9.90;99.90;;;;;;4935638;29;20340;-88
2023/09/01 03:02:47;;;;;;;914.47;386.57;;;9.90;99.90;;;;;;4932248;29;20308;-87
2023/09/01 03:05:13;;;;;;;921.10;393.97;;;10.50;99.90;;;;;;4904297;29;20311;-87
2023/09/01 03:07:40;;;;;;;905.97;389.50;;;10.00;99.90;;;;;;4914023;29;20664;-87
2023/09/01 03:14:15;;;;;;;920.07;497.07;;;10.00;99.90;;;;;;4920942;29;20295;-86
2023/09/01 03:16:43;;;;;;;892.70;387.93;;;9.90;99.90;;;;;;4925058;29;20408;-86
2023/09/01 03:19:09;;;;;;;879.30;482.90;;;10.00;99.90;;;;;;4923840;29;20630;-90
2023/09/01 03:21:35;;;;;;;911.90;390.07;;;10.00;99.90;;;;;;4923518;29;20315;-86
2023/09/01 03:24:03;;;;;;;897.40;384.87;;;10.00;99.90;;;;;;4915089;29;20058;-88
2023/09/01 03:26:29;;;;;;;894.07;393.13;;;10.00;99.90;;;;;;4926684;29;20123;-89
2023/09/01 03:28:55;;;;;;;912.80;390.60;;;10.30;99.90;;;;;;4901436;29;20899;-87
2023/09/01 03:31:21;;;;;;;901.33;387.83;;;10.00;99.90;;;;;;4917557;29;20047;-86
2023/09/01 03:33:47;;;;;;;918.57;496.80;;;10.00;99.90;;;;;;4920473;29;20126;-89
2023/09/01 03:36:14;;;;;;;955.80;394.90;;;10.00;99.90;;;;;;4898653;29;20402;-88
2023/09/01 03:38:40;;;;;;;968.20;396.80;;;10.00;99.90;;;;;;4935422;29;20044;-88
2023/09/01 03:41:06;;;;;;;971.67;401.27;;;10.20;99.90;;;;;;4917086;29;20361;-87
2023/09/01 03:43:33;;;;;;;993.80;505.03;;;10.50;99.90;;;;;;4933150;29;20061;-87
2023/09/01 03:45:59;;;;;;;944.63;396.43;;;9.90;99.90;;;;;;4910430;29;20316;-85
2023/09/01 03:48:25;;;;;;;953.03;499.77;;;9.90;99.90;;;;;;4935369;29;20299;-86
2023/09/01 03:51:11;;;;;;;926.60;380.77;;;9.90;99.90;;;;;;4919003;29;20307;-85
2023/09/01 03:53:38;;;;;;;1010.00;505.80;;;10.50;99.90;;;;;;4918809;29;20291;-86
2023/09/01 03:56:08;;;;;;;981.43;399.83;;;9.90;99.90;;;;;;4917682;29;20126;-88
2023/09/01 03:58:35;;;;;;;1017.47;404.43;;;9.70;99.90;;;;;;4919220;29;20363;-85
2023/09/01 04:01:00;;;;;;;985.87;396.67;;;9.90;99.90;;;;;;4917666;29;20387;-87
2023/09/01 04:03:26;;;;;;;997.77;400.77;;;9.80;99.90;;;;;;4935170;29;20402;-89
2023/09/01 04:05:58;;;;;;;1023.73;505.20;;;9.80;99.90;;;;;;4927523;29;20056;-87
2023/09/01 04:08:24;;;;;;;988.90;399.23;;;10.10;99.90;;;;;;4921487;29;20131;-90
2023/09/01 04:10:50;;;;;;;979.90;405.27;;;9.70;99.90;;;;;;4920004;29;20649;-89
2023/09/01 04:13:16;;;;;;;981.13;503.73;;;9.80;99.90;;;;;;4933460;29;20314;-89
2023/09/01 04:15:41;;;;;;;943.90;400.60;;;9.80;99.90;;;;;;4922555;29;20135;-89
2023/09/01 04:18:07;;;;;;;935.33;396.67;;;9.70;99.90;;;;;;4904322;29;20110;-90
2023/09/01 04:20:33;;;;;;;936.37;496.60;;;9.70;99.90;;;;;;4930601;29;20043;-86
2023/09/01 04:22:58;;;;;;;935.57;498.13;;;9.70;99.90;;;;;;4938055;29;20031;-89
2023/09/01 04:36:18;;;;;;;904.50;492.13;;;9.60;99.90;;;;;;4916008;29;20320;-87
2023/09/01 04:38:43;;;;;;;897.07;489.20;;;9.90;99.90;;;;;;4922361;29;20303;-92
2023/09/01 04:41:09;;;;;;;893.23;380.37;;;9.60;99.90;;;;;;4934249;29;20054;-89
2023/09/01 04:43:35;;;;;;;887.77;488.50;;;9.50;99.90;;;;;;4921059;29;20058;-88
2023/09/01 04:46:00;;;;;;;856.00;484.90;;;9.50;99.90;;;;;;4904499;29;20476;-87
2023/09/01 04:48:27;;;;;;;839.70;476.70;;;9.50;99.90;;;;;;4934508;29;20040;-88
2023/09/01 04:50:53;;;;;;;863.20;482.60;;;9.40;99.90;;;;;;4932092;29;20052;-89
2023/09/01 04:53:20;;;;;;;852.90;481.07;;;9.40;99.90;;;;;;4925881;29;20657;-89
2023/09/01 04:55:46;;;;;;;819.50;472.17;;;9.30;99.90;;;;;;4916646;29;20048;-88
2023/09/01 04:58:12;;;;;;;829.50;467.07;;;9.30;99.90;;;;;;4906710;29;20295;-92
2023/09/01 05:00:38;;;;;;;851.70;378.37;;;10.00;99.90;;;;;;4905579;29;20110;-94
2023/09/01 05:03:04;;;;;;;839.20;477.67;;;9.50;99.90;;;;;;4939878;29;20123;-88
2023/09/01 05:05:30;;;;;;;832.57;478.53;;;9.30;99.90;;;;;;4918929;29;20307;-92
2023/09/01 05:07:56;;;;;;;800.03;472.60;;;9.30;99.90;;;;;;4920591;29;20292;-93
2023/09/01 05:10:22;;;;;;;826.50;373.77;;;9.40;99.90;;;;;;4914820;29;20183;-91
2023/09/01 05:12:48;;;;;;;803.37;360.60;;;9.30;99.90;;;;;;4932351;29;20292;-89
2023/09/01 05:15:14;;;;;;;773.97;454.80;;;10.00;99.90;;;;;;4921728;29;20338;-90
2023/09/01 05:17:39;;;;;;;772.30;462.93;;;9.30;99.90;;;;;;4940190;29;20131;-88
2023/09/01 05:20:07;;;;;;;811.70;336.13;;;9.70;99.90;;;;;;4908628;29;20056;-88
2023/09/01 05:22:33;;;;;;;812.53;397.87;;;9.30;99.90;;;;;;4920462;29;20090;-91
2023/09/01 05:24:59;;;;;;;847.03;309.57;;;9.60;99.90;;;;;;4923655;29;20339;-87
2023/09/01 05:27:27;;;;;;;820.70;316.10;;;9.20;99.90;;;;;;4922497;29;20307;-89
2023/09/01 05:29:53;;;;;;;812.20;371.47;;;9.30;99.90;;;;;;4907560;29;20320;-87
2023/09/01 05:32:20;;;;;;;822.80;312.60;;;9.20;99.90;;;;;;4923957;29;20304;-85
2023/09/01 05:34:46;;;;;;;911.43;297.80;;;9.30;99.90;;;;;;4934044;29;20076;-85
2023/09/01 05:37:13;;;;;;;911.10;296.83;;;9.30;99.90;;;;;;4924921;29;20300;-87
2023/09/01 05:39:42;;;;;;;909.37;296.57;;;9.30;99.90;;;;;;4906813;29;20405;-87
2023/09/01 05:42:08;;;;;;;905.37;293.63;;;9.40;99.90;;;;;;4937970;29;20315;-89
2023/09/01 05:44:35;;;;;;;899.87;291.17;;;9.40;99.90;;;;;;4921696;29;20327;-88
2023/09/01 05:47:02;;;;;;;886.13;281.90;;;9.90;99.90;;;;;;4921685;29;20304;-85
2023/09/01 05:49:29;;;;;;;869.53;272.50;;;9.40;99.90;;;;;;4921266;29;20318;-85
2023/09/01 05:51:55;;;;;;;866.00;266.90;;;9.50;99.90;;;;;;4937588;29;20788;-89
2023/09/01 05:54:20;;;;;;;855.17;259.90;;;9.60;99.90;;;;;;4921510;29;20298;-88
2023/09/01 05:56:46;;;;;;;841.13;250.27;;;9.20;99.90;;;;;;4903857;29;20043;-92
2023/09/01 05:59:13;;;;;;;825.57;241.17;;;10.00;99.90;;;;;;4909058;29;20136;-86
2023/09/01 06:01:39;;;;;;;813.90;235.77;;;9.90;99.90;;;;;;4906002;29;20055;-87
2023/09/01 06:04:05;;;;;;;843.33;258.23;;;10.00;99.90;;;;;;4921733;29;20311;-91
2023/09/01 06:06:35;;;;;;;870.17;275.83;;;10.10;99.90;;;;;;4923138;29;20360;-88
2023/09/01 06:09:04;;;;;;;876.83;284.37;;;10.10;99.90;;;;;;4904646;29;20706;-86
2023/09/01 06:26:17;;;;;;;853.57;262.03;;;10.90;99.90;;;;;;4938545;29;20399;-91
2023/09/01 06:28:44;;;;;;;819.40;234.80;;;11.10;99.90;;;;;;4921436;29;20292;-91
2023/09/01 06:31:10;;;;;;;781.13;217.63;;;11.20;99.90;;;;;;4936350;29;20310;-90
2023/09/01 06:33:43;;;;;;;737.67;207.27;;;11.30;99.90;;;;;;4938903;29;20295;-88
2023/09/01 06:36:10;;;;;;;696.17;206.90;;;11.70;99.90;;;;;;4920951;29;20048;-88
2023/09/01 06:38:36;;;;;;;641.80;204.63;;;11.60;99.90;;;;;;4904901;29;20295;-87
2023/09/01 06:41:03;;;;;;;557.63;200.40;;;11.80;99.90;;;;;;4921024;29;20335;-87
2023/09/01 06:43:30;;;;;;;551.33;200.47;;;12.00;99.90;;;;;;4921050;29;20359;-86
2023/09/01 06:46:14;;;;;;;510.60;197.60;;;12.10;99.90;;;;;;4940949;29;20410;-86
2023/09/01 06:48:42;;;;;;;411.73;191.90;;;12.30;99.90;;;;;;4943275;29;20804;-87
2023/09/01 06:58:10;;;;;;;545.33;202.63;;;12.90;99.90;;;;;;4871864;29;20302;-91
2023/09/01 07:00:35;;;;;;;514.67;196.63;;;13.10;99.90;;;;;;4898414;23;20340;-87
2023/09/01 07:21:26;;;;;;;530.70;200.30;;;14.50;99.90;;;;;;4934246;29;20492;-88
2023/09/01 07:23:54;;;;;;;526.80;199.77;;;14.60;99.90;;;;;;4895043;29;21152;-86
2023/09/01 07:27:09;;;;;;;530.27;200.87;;;14.90;99.90;;;;;;4898885;29;20385;-90
2023/09/01 07:30:13;;;;;;;541.97;200.50;;;15.00;99.90;;;;;;4858709;29;20323;-91
2023/09/01 08:09:50;;;;;;;647.15;234.68;;;17.00;99.90;;;;;;5913064;23;20035;-86
2023/09/01 08:16:11;;;;;;;619.93;211.67;;;17.10;99.90;;;;;;4875038;29;20060;-88
2023/09/01 08:19:44;;;;;;;;;;;;;;;;;;;;;
2023/09/01 08:21:57;;;;;;;643.27;210.17;;;17.20;99.90;;;;;;4864479;29;20297;-85
2023/09/01 08:24:49;;;;;;;657.07;212.27;;;17.40;99.90;;;;;;4862540;29;20306;-87
2023/09/01 08:34:10;;;;;;;682.63;214.07;;;17.80;99.90;;;;;;5119376;23;20316;-90
2023/09/01 08:40:10;;;;;;;706.23;216.37;;;17.90;99.90;;;;;;4859717;29;20358;-87
2023/09/01 08:42:49;;;;;;;714.50;214.07;;;18.00;99.90;;;;;;4858437;29;20305;-86
2023/09/01 08:45:20;;;;;;;735.33;216.70;;;18.00;99.90;;;;;;4846645;29;20909;-86
2023/09/01 08:47:52;;;;;;;763.77;220.33;;;18.10;99.90;;;;;;4862449;29;20385;-87
2023/09/01 08:50:20;;;;;;;775.90;223.93;;;18.20;99.90;;;;;;4833557;29;20385;-86
2023/09/01 08:52:47;;;;;;;791.53;221.03;;;18.10;99.90;;;;;;4844139;29;20406;-88
2023/09/01 08:55:39;;;;;;;794.20;222.57;;;18.10;99.90;;;;;;4852015;29;20540;-89
2023/09/01 08:58:11;;;;;;;775.80;221.70;;;18.20;99.90;;;;;;4823597;29;20367;-88
2023/09/01 09:00:37;;;;;;;775.20;221.73;;;18.40;99.90;;;;;;4821902;29;20042;-88
2023/09/01 09:03:27;;;;;;;;;;;;;;;;;;;;;
2023/09/01 09:06:16;;;;;;;827.10;229.10;;;18.40;99.90;;;;;;4835224;29;20512;-87
2023/09/01 09:08:44;;;;;;;860.57;344.93;;;18.50;99.90;;;;;;4826197;29;20576;-87
2023/09/01 09:11:13;;;;;;;895.57;381.00;;;18.50;99.90;;;;;;4822666;29;20058;-87
2023/09/01 09:14:03;;;;;;;959.03;501.87;;;18.50;99.90;;;;;;4824892;29;20090;-87
2023/09/01 09:16:47;;;;;;;;;;;18.50;99.90;;;;;;4830127;29;20329;-89
2023/09/01 09:19:27;;;;;;;952.73;489.60;;;18.50;99.90;;;;;;4886301;29;20316;-88
2023/09/01 09:22:28;;;;;;;990.97;518.20;;;18.60;99.90;;;;;;4899096;29;20429;-89
2023/09/01 09:24:56;;;;;;;1014.37;522.33;;;18.60;99.90;;;;;;4859944;29;20517;-88
2023/09/01 09:38:42;;;;;;;1001.00;551.00;;;18.60;99.90;;;;;;4772001;30;20367;-87
2023/09/01 09:41:08;;;;;;;1009.80;533.28;;;18.70;99.90;;;;;;4784393;30;20355;-88
2023/09/01 10:03:31;;;;;;;1005.77;535.40;;;18.90;99.90;;;;;;4934947;23;20147;-87
2023/09/01 10:09:44;;;;;;;1002.70;537.70;;;18.80;99.90;;;;;;4930696;23;20356;-89
2023/09/01 10:12:12;;;;;;;1008.03;538.73;;;18.80;99.90;;;;;;4919170;29;20314;-89
2023/09/01 10:17:38;;;;;;;1006.42;556.42;;;18.80;99.90;;;;;;5127332;23;20308;-93
2023/09/01 10:22:59;;;;;;;1008.50;531.17;;;18.80;99.90;;;;;;4950910;23;20331;-89
2023/09/01 10:25:28;;;;;;;1003.43;566.03;;;18.90;99.90;;;;;;4930565;29;20304;-87
2023/09/01 10:28:24;;;;;;;997.33;561.33;;;19.00;99.90;;;;;;4904102;29;20051;-87
2023/09/01 10:30:50;;;;;;;1041.30;562.72;;;19.00;99.90;;;;;;4922187;29;20048;-88
2023/09/01 10:37:24;;;;;;;1112.80;567.23;;;19.20;99.90;;;;;;4880988;29;20045;-88
2023/09/01 10:42:48;;;;;;;1098.13;528.80;;;19.10;99.90;;;;;;4955757;23;20419;-89
2023/09/01 10:45:17;;;;;;;1088.37;531.77;;;19.30;99.90;;;;;;4845046;29;20444;-86
2023/09/01 10:47:51;;;;;;;1120.73;565.40;;;19.30;99.90;;;;;;4829322;29;20102;-88
2023/09/01 10:50:41;;;;;;;1088.37;535.30;;;19.30;99.90;;;;;;4829221;29;20460;-87
2023/09/01 10:53:29;;;;;;;1076.00;532.20;;;19.40;99.90;;;;;;4828802;29;20426;-89
2023/09/01 10:56:15;;;;;;;1075.87;539.77;;;19.50;99.90;;;;;;4843723;29;20061;-89
2023/09/01 10:58:52;;;;;;;1081.00;535.80;;;19.70;99.90;;;;;;4835625;29;20045;-91
2023/09/01 11:01:43;;;;;;;1148.37;569.83;;;19.90;99.90;;;;;;4858895;29;20501;-88
2023/09/01 11:04:20;;;;;;;1150.43;570.27;;;20.00;99.90;;;;;;4844486;29;20049;-88
2023/09/01 11:07:07;;;;;;;1103.87;538.90;;;20.20;99.90;;;;;;4858677;29;20049;-88
2023/09/01 11:09:39;;;;;;;1095.60;551.90;;;20.30;99.90;;;;;;4821605;29;20076;-88
2023/09/01 11:12:31;;;;;;;1102.33;549.83;;;20.40;99.90;;;;;;4841891;29;20319;-87
2023/09/01 11:15:03;;;;;;;1094.03;553.13;;;20.50;99.90;;;;;;4828621;29;20069;-89
2023/09/01 11:17:45;;;;;;;1099.80;550.97;;;20.70;99.90;;;;;;4858410;29;20331;-89
2023/09/01 11:20:13;;;;;;;1135.97;572.77;;;20.60;99.90;;;;;;4858428;29;20301;-88
2023/09/01 11:22:41;;;;;;;1094.20;576.70;;;20.70;99.90;;;;;;4890123;29;20114;-88
2023/09/01 11:25:20;;;;;;;1062.47;564.07;;;20.70;99.90;;;;;;4919505;29;20047;-89
2023/09/01 11:30:21;;;;;;;1054.57;578.97;;;20.70;99.90;;;;;;4953391;23;20055;-88
2023/09/01 11:32:48;;;;;;;1050.33;568.57;;;20.80;99.90;;;;;;4919228;29;20398;-88
2023/09/01 11:35:32;;;;;;;1037.47;567.63;;;20.90;99.90;;;;;;4906916;29;20047;-90
2023/09/01 11:38:21;;;;;;;966.47;570.30;;;21.20;99.90;;;;;;4924788;29;20051;-89
2023/09/01 11:40:50;;;;;;;939.60;566.30;;;21.40;99.90;;;;;;4940164;29;20071;-89
2023/09/01 11:43:21;;;;;;;959.57;528.87;;;21.60;99.90;;;;;;4904529;29;20134;-89
2023/09/01 11:45:50;;;;;;;972.27;553.00;;;21.90;99.90;;;;;;4921207;29;20050;-89
2023/09/01 11:48:30;;;;;;;1009.03;579.40;;;22.10;99.90;;;;;;4918394;29;20111;-89
2023/09/01 11:51:13;;;;;;;1009.17;584.50;;;22.20;99.90;;;;;;4907903;29;20097;-90
2023/09/01 11:54:12;;;;;;;998.23;586.87;;;22.20;99.90;;;;;;4903466;29;20047;-90
2023/09/01 11:56:44;;;;;;;1029.47;593.53;;;22.40;99.90;;;;;;4915972;29;20588;-89
2023/09/01 12:01:41;;;;;;;1041.73;595.83;;;22.40;99.90;;;;;;4922124;23;20184;-90
2023/09/01 12:04:09;;;;;;;1057.40;594.10;;;22.40;99.90;;;;;;4916953;29;20048;-89
2023/09/01 12:06:44;;;;;;;1072.47;583.23;;;22.30;99.90;;;;;;4885268;29;20055;-89
2023/09/01 12:09:10;;;;;;;1002.00;575.30;;;22.20;99.90;;;;;;4900478;29;20056;-88
2023/09/01 12:25:58;;;;;;;;;;;;;;;;;;;;;
2023/09/01 12:48:09;;;;;;;1052.82;594.10;;;23.20;99.90;;;;;;5224366;23;20489;-88
2023/09/01 12:50:35;;;;;;;1030.43;600.50;;;23.30;99.90;;;;;;4941671;29;20066;-88
2023/09/01 12:53:03;;;;;;;1052.27;601.97;;;23.40;99.90;;;;;;4924336;29;20039;-87
2023/09/01 12:55:35;;;;;;;1042.93;618.30;;;23.50;99.90;;;;;;4920739;29;20094;-90
2023/09/01 12:58:00;;;;;;;1055.13;599.20;;;23.60;99.90;;;;;;4939835;29;20048;-87
2023/09/01 13:24:59;;;;;;;;;;;;;;;;;;;;;
2023/09/01 13:27:34;;;;;;;1029.43;627.00;;;24.00;99.10;;;;;;4932888;29;20060;-89
2023/09/01 13:40:44;;;;;;;1008.00;620.15;;;23.90;99.90;;;;;;6033946;23;21030;31
2023/09/01 13:54:51;;;;;;;968.53;607.80;;;23.80;98.60;;;;;;4876822;29;20049;-88
2023/09/01 13:57:40;;;;;;;888.63;532.90;;;23.50;99.10;;;;;;4862531;29;20114;-89
2023/09/01 14:02:49;;;;;;;906.57;563.47;;;23.50;99.80;;;;;;1155558;23;20318;-89
2023/09/01 14:12:03;;;;;;;935.17;592.27;;;23.10;99.90;;;;;;4817574;29;20063;-89
2023/09/01 14:52:21;;;;;;;876.43;498.03;;;23.10;99.90;;;;;;5126350;23;20067;-86
2023/09/01 15:05:30;;;;;;;901.80;436.93;;;22.60;99.90;;;;;;4845648;29;20594;-92
2023/09/01 15:07:59;;;;;;;909.47;465.13;;;22.80;99.90;;;;;;4881419;29;20052;-91
2023/09/01 15:10:38;;;;;;;;;;;;;;;;;;;;;
2023/09/01 15:13:25;;;;;;;879.10;485.40;;;22.80;99.90;;;;;;4858100;29;20114;-91
2023/09/01 15:16:14;;;;;;;915.73;466.93;;;23.00;99.90;;;;;;4844775;29;20056;-91
2023/09/01 15:36:36;;;;;;;895.33;242.27;;;23.10;99.90;;;;;;4924500;29;20052;-88
2023/09/01 15:48:19;;;;;;;784.20;233.87;;;22.40;99.90;;;;;;4945944;23;20043;-86
2023/09/01 15:50:48;;;;;;;817.77;235.73;;;22.30;99.90;;;;;;4922091;29;20143;-90
2023/09/01 16:52:38;;;;;;;680.07;227.63;;;20.40;99.90;;;;;;4668163;26;20134;-89
2023/09/01 16:55:10;;;;;;;739.00;231.83;;;20.30;99.90;;;;;;4929183;29;20055;-90
2023/09/01 16:57:39;;;;;;;791.17;231.23;;;20.10;99.90;;;;;;4932744;29;20075;-91
2023/09/01 17:00:06;;;;;;;806.80;233.63;;;19.90;99.90;;;;;;4943496;29;20047;-91
2023/09/01 17:35:45;;;;;;;745.05;231.63;;;18.90;99.90;;;;;;4900982;23;20062;-88
2023/09/01 18:33:05;;;;;;;833.72;234.38;;;17.10;99.90;;;;;;5599074;23;20040;-88
2023/09/01 19:18:48;;;;;;;667.90;222.38;;;15.80;99.90;;;;;;4935731;23;20445;-91
2023/09/01 19:42:27;;;;;;;635.97;228.18;;;15.30;99.90;;;;;;5821009;23;20025;-90
2023/09/01 19:44:59;;;;;;;614.87;213.73;;;15.30;99.90;;;;;;4907063;29;20509;-92
2023/09/01 19:47:52;;;;;;;;;;;;;;;;;;;;;
2023/09/01 19:50:22;;;;;;;610.30;212.13;;;15.10;99.90;;;;;;4910779;29;20304;-85
2023/09/01 19:52:48;;;;;;;612.93;212.83;;;15.10;99.90;;;;;;4922611;23;20307;-89
2023/09/01 19:55:24;;;;;;;623.37;214.43;;;15.00;99.90;;;;;;4936565;29;20359;-88
2023/09/01 19:57:51;;;;;;;614.47;212.10;;;15.00;99.90;;;;;;4911284;29;20307;-87
2023/09/01 20:04:30;;;;;;;629.60;213.50;;;14.90;99.90;;;;;;4932732;29;20321;-90
2023/09/01 20:07:00;;;;;;;640.47;214.93;;;14.90;99.90;;;;;;4902742;29;20291;-89
2023/09/01 20:09:29;;;;;;;632.47;213.33;;;14.80;99.90;;;;;;4899800;29;20410;-88
2023/09/01 20:11:58;;;;;;;638.73;212.40;;;14.80;99.90;;;;;;4908739;29;20291;-90
2023/09/01 20:14:33;;;;;;;637.03;212.73;;;14.70;99.90;;;;;;4914299;29;20296;-90
2023/09/01 20:19:59;;;;;;;639.13;211.47;;;14.70;99.90;;;;;;4895876;29;20356;-90
2023/09/01 20:30:45;;;;;;;656.25;212.25;;;14.50;99.90;;;;;;4858319;26;20166;-88
2023/09/01 20:33:10;;;;;;;645.20;212.97;;;14.50;99.90;;;;;;4910397;29;20040;-88
2023/09/01 20:35:36;;;;;;;653.87;213.47;;;14.50;99.90;;;;;;4899965;29;20048;-89
2023/09/01 20:38:03;;;;;;;652.73;215.03;;;14.40;99.90;;;;;;4920777;29;20082;-86
2023/09/01 20:40:28;;;;;;;648.27;212.87;;;14.40;99.90;;;;;;4937498;29;20106;-86
2023/09/01 20:43:04;;;;;;;646.80;212.87;;;14.40;99.90;;;;;;4914694;29;20793;-89
2023/09/01 20:45:29;;;;;;;653.05;212.32;;;14.40;99.90;;;;;;4900552;29;20044;-88
2023/09/01 20:48:04;;;;;;;653.50;214.03;;;14.40;99.90;;;;;;4905942;29;20089;-90
2023/09/01 20:50:40;;;;;;;649.23;211.60;;;14.30;99.90;;;;;;4924384;29;20126;-89
2023/09/01 20:56:08;;;;;;;635.83;216.53;;;14.40;99.90;;;;;;5017740;23;20804;-89
2023/09/01 21:05:36;;;;;;;627.30;209.43;;;14.20;99.90;;;;;;4861596;29;20289;-87
2023/09/01 21:26:39;;;;;;;645.50;211.30;;;13.60;99.90;;;;;;4767140;30;20318;-91
2023/09/01 21:29:06;;;;;;;624.90;206.67;;;13.60;99.90;;;;;;4772915;30;20316;-88
2023/09/01 21:31:32;;;;;;;626.80;204.97;;;13.60;99.90;;;;;;4760735;30;20325;-88
2023/09/01 21:33:58;;;;;;;624.07;206.97;;;13.50;99.90;;;;;;4767341;30;20301;-87
2023/09/01 21:36:23;;;;;;;620.33;205.03;;;13.50;99.90;;;;;;4755151;30;20481;-86
2023/09/01 21:38:49;;;;;;;632.70;210.07;;;13.50;99.90;;;;;;4781874;29;20086;-89
2023/09/01 21:41:20;;;;;;;602.47;204.00;;;13.50;99.90;;;;;;4770657;30;20444;-91
2023/09/01 21:44:05;;;;;;;617.43;206.67;;;13.40;99.90;;;;;;4788963;30;20108;-88
2023/09/01 21:46:50;;;;;;;609.07;203.37;;;13.40;99.90;;;;;;4789372;30;20889;-89
2023/09/01 21:49:16;;;;;;;585.47;203.50;;;13.40;99.90;;;;;;4789866;29;20296;-90
2023/09/01 21:51:50;;;;;;;592.07;203.67;;;13.40;99.90;;;;;;4830128;29;20061;-88
2023/09/01 21:54:16;;;;;;;602.70;203.97;;;13.30;99.90;;;;;;4921344;29;20135;-88
2023/09/01 21:56:42;;;;;;;593.07;202.70;;;13.30;99.90;;;;;;4905834;29;20395;-89
2023/09/01 21:59:08;;;;;;;594.07;202.43;;;13.30;99.90;;;;;;4907996;29;20137;-93
2023/09/01 22:08:56;;;;;;;616.37;204.87;;;13.20;99.90;;;;;;4920819;29;20283;-88
2023/09/01 22:11:24;;;;;;;600.37;205.17;;;13.10;99.90;;;;;;4912712;29;20320;-88
2023/09/01 22:13:53;;;;;;;577.33;203.53;;;13.10;99.90;;;;;;4902077;29;20813;-89
2023/09/01 22:24:14;;;;;;;582.17;205.40;;;13.00;99.90;;;;;;4906489;29;20327;-88
2023/09/01 22:26:40;;;;;;;;;;;13.00;99.90;;;;;;4919488;29;20303;-89
2023/09/01 22:29:05;;;;;;;545.00;202.52;;;13.00;99.90;;;;;;4918672;29;19923;-89